sensor_id;sensor_type;location;lat;lon;timestamp;P1;durP1;ratioP1;P2;durP2;ratioP2
24485;SDS011;13449;49.374;8.584;2024-01-16T00:01:37;12.40;;;4.90;;
24485;SDS011;13449;49.374;8.584;2024-01-16T00:04:05;14.23;;;5.10;;
24485;SDS011;13449;49.374;8.584;2024-01-16T00:06:32;18.77;;;6.10;;
24485;SDS011;13449;49.374;8.584;2024-01-16T00:08:58;19.20;;;5.43;;
24485;SDS011;13449;49.374;8.584;2024-01-16T00:11:25;15.18;;;5.07;;
24485;SDS011;13449;49.374;8.584;2024-01-16T00:13:51;19.67;;;5.20;;
24485;SDS011;13449;49.374;8.584;2024-01-16T00:16:19;19.60;;;5.82;;
24485;SDS011;13449;49.374;8.584;2024-01-16T00:18:46;7.50;;;3.03;;
24485;SDS011;13449;49.374;8.584;2024-01-16T00:21:13;8.48;;;3.47;;
24485;SDS011;13449;49.374;8.584;2024-01-16T00:23:39;9.05;;;3.72;;
24485;SDS011;13449;49.374;8.584;2024-01-16T00:26:08;7.32;;;3.50;;
24485;SDS011;13449;49.374;8.584;2024-01-16T00:28:45;9.05;;;3.60;;
24485;SDS011;13449;49.374;8.584;2024-01-16T00:31:14;8.70;;;3.80;;
24485;SDS011;13449;49.374;8.584;2024-01-16T00:33:41;11.52;;;4.25;;
24485;SDS011;13449;49.374;8.584;2024-01-16T00:36:08;6.93;;;3.50;;
24485;SDS011;13449;49.374;8.584;2024-01-16T00:38:35;7.65;;;3.83;;
24485;SDS011;13449;49.374;8.584;2024-01-16T00:41:01;12.27;;;4.28;;
24485;SDS011;13449;49.374;8.584;2024-01-16T00:43:28;7.97;;;3.92;;
24485;SDS011;13449;49.374;8.584;2024-01-16T00:45:56;9.43;;;3.58;;
24485;SDS011;13449;49.374;8.584;2024-01-16T00:48:22;8.05;;;4.18;;
24485;SDS011;13449;49.374;8.584;2024-01-16T00:50:49;11.40;;;4.13;;
24485;SDS011;13449;49.374;8.584;2024-01-16T00:53:16;8.93;;;4.05;;
24485;SDS011;13449;49.374;8.584;2024-01-16T00:55:43;7.82;;;3.88;;
24485;SDS011;13449;49.374;8.584;2024-01-16T00:58:12;7.43;;;4.22;;
24485;SDS011;13449;49.374;8.584;2024-01-16T01:00:39;12.90;;;4.88;;
24485;SDS011;13449;49.374;8.584;2024-01-16T01:03:06;9.05;;;4.50;;
24485;SDS011;13449;49.374;8.584;2024-01-16T01:05:32;8.40;;;3.95;;
24485;SDS011;13449;49.374;8.584;2024-01-16T01:07:59;14.75;;;5.28;;
24485;SDS011;13449;49.374;8.584;2024-01-16T01:10:25;8.25;;;3.50;;
24485;SDS011;13449;49.374;8.584;2024-01-16T01:12:52;10.40;;;3.53;;
24485;SDS011;13449;49.374;8.584;2024-01-16T01:15:20;9.85;;;4.25;;
24485;SDS011;13449;49.374;8.584;2024-01-16T01:17:51;10.18;;;4.40;;
24485;SDS011;13449;49.374;8.584;2024-01-16T01:20:18;10.13;;;4.13;;
24485;SDS011;13449;49.374;8.584;2024-01-16T01:22:45;10.57;;;3.75;;
24485;SDS011;13449;49.374;8.584;2024-01-16T01:25:12;10.30;;;5.07;;
24485;SDS011;13449;49.374;8.584;2024-01-16T01:27:39;15.05;;;4.68;;
24485;SDS011;13449;49.374;8.584;2024-01-16T01:30:07;8.05;;;3.50;;
24485;SDS011;13449;49.374;8.584;2024-01-16T01:32:37;10.73;;;4.40;;
24485;SDS011;13449;49.374;8.584;2024-01-16T01:35:05;8.48;;;3.97;;
24485;SDS011;13449;49.374;8.584;2024-01-16T01:37:32;9.68;;;4.15;;
24485;SDS011;13449;49.374;8.584;2024-01-16T01:39:59;11.57;;;4.45;;
24485;SDS011;13449;49.374;8.584;2024-01-16T01:42:25;12.93;;;4.60;;
24485;SDS011;13449;49.374;8.584;2024-01-16T01:44:53;12.35;;;3.95;;
24485;SDS011;13449;49.374;8.584;2024-01-16T01:47:19;8.77;;;4.38;;
24485;SDS011;13449;49.374;8.584;2024-01-16T01:49:46;10.13;;;4.50;;
24485;SDS011;13449;49.374;8.584;2024-01-16T01:52:14;12.55;;;5.45;;
24485;SDS011;13449;49.374;8.584;2024-01-16T01:54:40;14.13;;;4.07;;
24485;SDS011;13449;49.374;8.584;2024-01-16T01:57:07;10.50;;;3.85;;
24485;SDS011;13449;49.374;8.584;2024-01-16T01:59:35;11.73;;;4.57;;
24485;SDS011;13449;49.374;8.584;2024-01-16T02:02:02;13.52;;;4.60;;
24485;SDS011;13449;49.374;8.584;2024-01-16T02:04:31;8.43;;;4.40;;
24485;SDS011;13449;49.374;8.584;2024-01-16T02:06:58;13.52;;;4.90;;
24485;SDS011;13449;49.374;8.584;2024-01-16T02:09:25;18.05;;;5.18;;
24485;SDS011;13449;49.374;8.584;2024-01-16T02:11:51;11.07;;;4.85;;
24485;SDS011;13449;49.374;8.584;2024-01-16T02:14:18;12.05;;;4.85;;
24485;SDS011;13449;49.374;8.584;2024-01-16T02:16:44;10.50;;;4.15;;
24485;SDS011;13449;49.374;8.584;2024-01-16T02:19:11;14.48;;;5.13;;
24485;SDS011;13449;49.374;8.584;2024-01-16T02:21:39;13.45;;;5.25;;
24485;SDS011;13449;49.374;8.584;2024-01-16T02:24:08;9.85;;;4.85;;
24485;SDS011;13449;49.374;8.584;2024-01-16T02:26:37;10.88;;;4.63;;
24485;SDS011;13449;49.374;8.584;2024-01-16T02:29:05;10.40;;;4.45;;
24485;SDS011;13449;49.374;8.584;2024-01-16T02:31:32;12.90;;;4.60;;
24485;SDS011;13449;49.374;8.584;2024-01-16T02:33:59;11.10;;;5.20;;
24485;SDS011;13449;49.374;8.584;2024-01-16T02:36:27;7.78;;;3.63;;
24485;SDS011;13449;49.374;8.584;2024-01-16T02:38:57;8.57;;;3.40;;
24485;SDS011;13449;49.374;8.584;2024-01-16T02:41:24;6.97;;;3.92;;
24485;SDS011;13449;49.374;8.584;2024-01-16T02:43:51;14.93;;;4.93;;
24485;SDS011;13449;49.374;8.584;2024-01-16T02:46:18;8.75;;;4.80;;
24485;SDS011;13449;49.374;8.584;2024-01-16T02:48:44;6.32;;;3.55;;
24485;SDS011;13449;49.374;8.584;2024-01-16T02:51:11;12.07;;;4.30;;
24485;SDS011;13449;49.374;8.584;2024-01-16T02:53:41;10.38;;;4.63;;
24485;SDS011;13449;49.374;8.584;2024-01-16T02:56:08;8.30;;;3.72;;
24485;SDS011;13449;49.374;8.584;2024-01-16T02:58:35;13.10;;;3.72;;
24485;SDS011;13449;49.374;8.584;2024-01-16T03:01:05;7.93;;;3.58;;
24485;SDS011;13449;49.374;8.584;2024-01-16T03:03:32;9.23;;;4.93;;
24485;SDS011;13449;49.374;8.584;2024-01-16T03:05:58;9.52;;;4.70;;
24485;SDS011;13449;49.374;8.584;2024-01-16T03:08:26;8.85;;;3.92;;
24485;SDS011;13449;49.374;8.584;2024-01-16T03:10:52;8.77;;;4.85;;
24485;SDS011;13449;49.374;8.584;2024-01-16T03:13:19;18.60;;;4.43;;
24485;SDS011;13449;49.374;8.584;2024-01-16T03:15:45;10.43;;;4.53;;
24485;SDS011;13449;49.374;8.584;2024-01-16T03:18:12;10.13;;;4.45;;
24485;SDS011;13449;49.374;8.584;2024-01-16T03:20:41;14.68;;;6.55;;
24485;SDS011;13449;49.374;8.584;2024-01-16T03:23:08;11.15;;;4.43;;
24485;SDS011;13449;49.374;8.584;2024-01-16T03:25:38;12.70;;;3.95;;
24485;SDS011;13449;49.374;8.584;2024-01-16T03:28:07;10.07;;;4.57;;
24485;SDS011;13449;49.374;8.584;2024-01-16T03:30:39;14.80;;;4.43;;
24485;SDS011;13449;49.374;8.584;2024-01-16T03:33:05;17.50;;;4.97;;
24485;SDS011;13449;49.374;8.584;2024-01-16T03:35:33;9.82;;;4.05;;
24485;SDS011;13449;49.374;8.584;2024-01-16T03:38:01;8.60;;;4.35;;
24485;SDS011;13449;49.374;8.584;2024-01-16T03:40:28;13.07;;;4.57;;
24485;SDS011;13449;49.374;8.584;2024-01-16T03:43:01;12.68;;;5.00;;
24485;SDS011;13449;49.374;8.584;2024-01-16T03:45:28;14.63;;;4.65;;
24485;SDS011;13449;49.374;8.584;2024-01-16T03:47:54;7.53;;;4.28;;
24485;SDS011;13449;49.374;8.584;2024-01-16T03:50:26;11.23;;;4.10;;
24485;SDS011;13449;49.374;8.584;2024-01-16T03:52:52;7.82;;;4.13;;
24485;SDS011;13449;49.374;8.584;2024-01-16T03:55:19;7.78;;;4.18;;
24485;SDS011;13449;49.374;8.584;2024-01-16T03:57:46;12.05;;;4.35;;
24485;SDS011;13449;49.374;8.584;2024-01-16T04:00:12;11.32;;;4.03;;
24485;SDS011;13449;49.374;8.584;2024-01-16T04:02:40;10.57;;;4.68;;
24485;SDS011;13449;49.374;8.584;2024-01-16T04:05:06;8.13;;;4.20;;
24485;SDS011;13449;49.374;8.584;2024-01-16T04:07:33;9.10;;;4.05;;
24485;SDS011;13449;49.374;8.584;2024-01-16T04:10:02;9.80;;;3.60;;
24485;SDS011;13449;49.374;8.584;2024-01-16T04:12:31;12.13;;;3.85;;
24485;SDS011;13449;49.374;8.584;2024-01-16T04:14:58;8.13;;;3.72;;
24485;SDS011;13449;49.374;8.584;2024-01-16T04:17:24;12.05;;;4.13;;
24485;SDS011;13449;49.374;8.584;2024-01-16T04:19:51;11.85;;;4.22;;
24485;SDS011;13449;49.374;8.584;2024-01-16T04:22:17;9.23;;;4.15;;
24485;SDS011;13449;49.374;8.584;2024-01-16T04:24:44;8.00;;;3.65;;
24485;SDS011;13449;49.374;8.584;2024-01-16T04:27:15;9.87;;;4.40;;
24485;SDS011;13449;49.374;8.584;2024-01-16T04:29:44;9.65;;;4.50;;
24485;SDS011;13449;49.374;8.584;2024-01-16T04:32:11;8.82;;;3.83;;
24485;SDS011;13449;49.374;8.584;2024-01-16T04:34:37;14.02;;;4.43;;
24485;SDS011;13449;49.374;8.584;2024-01-16T04:37:04;10.65;;;4.30;;
24485;SDS011;13449;49.374;8.584;2024-01-16T04:39:30;9.43;;;4.80;;
24485;SDS011;13449;49.374;8.584;2024-01-16T04:41:57;13.85;;;4.85;;
24485;SDS011;13449;49.374;8.584;2024-01-16T04:44:24;12.48;;;4.53;;
24485;SDS011;13449;49.374;8.584;2024-01-16T04:46:50;13.93;;;4.82;;
24485;SDS011;13449;49.374;8.584;2024-01-16T04:49:17;9.75;;;5.28;;
24485;SDS011;13449;49.374;8.584;2024-01-16T04:51:44;7.75;;;4.18;;
24485;SDS011;13449;49.374;8.584;2024-01-16T04:54:11;9.95;;;5.15;;
24485;SDS011;13449;49.374;8.584;2024-01-16T04:56:38;12.30;;;5.13;;
24485;SDS011;13449;49.374;8.584;2024-01-16T04:59:04;12.15;;;4.97;;
24485;SDS011;13449;49.374;8.584;2024-01-16T05:01:31;17.55;;;4.40;;
24485;SDS011;13449;49.374;8.584;2024-01-16T05:03:57;15.60;;;5.30;;
24485;SDS011;13449;49.374;8.584;2024-01-16T05:06:24;9.98;;;4.93;;
24485;SDS011;13449;49.374;8.584;2024-01-16T05:08:53;14.02;;;5.10;;
24485;SDS011;13449;49.374;8.584;2024-01-16T05:11:20;25.35;;;4.90;;
24485;SDS011;13449;49.374;8.584;2024-01-16T05:13:49;17.63;;;4.63;;
24485;SDS011;13449;49.374;8.584;2024-01-16T05:16:15;13.75;;;4.60;;
24485;SDS011;13449;49.374;8.584;2024-01-16T05:18:42;16.35;;;5.05;;
24485;SDS011;13449;49.374;8.584;2024-01-16T05:21:09;11.57;;;5.03;;
24485;SDS011;13449;49.374;8.584;2024-01-16T05:23:38;11.38;;;4.43;;
24485;SDS011;13449;49.374;8.584;2024-01-16T05:26:07;12.05;;;4.57;;
24485;SDS011;13449;49.374;8.584;2024-01-16T05:28:33;11.18;;;4.07;;
24485;SDS011;13449;49.374;8.584;2024-01-16T05:31:00;10.90;;;4.40;;
24485;SDS011;13449;49.374;8.584;2024-01-16T05:33:29;12.63;;;4.47;;
24485;SDS011;13449;49.374;8.584;2024-01-16T05:35:59;10.48;;;4.40;;
24485;SDS011;13449;49.374;8.584;2024-01-16T05:38:25;9.05;;;4.07;;
24485;SDS011;13449;49.374;8.584;2024-01-16T05:40:52;12.05;;;5.20;;
24485;SDS011;13449;49.374;8.584;2024-01-16T05:43:19;19.27;;;4.70;;
24485;SDS011;13449;49.374;8.584;2024-01-16T05:45:47;6.43;;;3.58;;
24485;SDS011;13449;49.374;8.584;2024-01-16T05:48:14;11.38;;;4.63;;
24485;SDS011;13449;49.374;8.584;2024-01-16T05:50:40;17.13;;;4.80;;
24485;SDS011;13449;49.374;8.584;2024-01-16T05:53:08;9.65;;;3.88;;
24485;SDS011;13449;49.374;8.584;2024-01-16T05:55:35;16.25;;;4.65;;
24485;SDS011;13449;49.374;8.584;2024-01-16T05:58:03;13.18;;;4.45;;
24485;SDS011;13449;49.374;8.584;2024-01-16T06:00:31;9.23;;;4.45;;
24485;SDS011;13449;49.374;8.584;2024-01-16T06:03:01;9.70;;;3.87;;
24485;SDS011;13449;49.374;8.584;2024-01-16T06:05:30;17.17;;;4.85;;
24485;SDS011;13449;49.374;8.584;2024-01-16T06:07:56;12.18;;;4.55;;
24485;SDS011;13449;49.374;8.584;2024-01-16T06:10:25;8.13;;;3.92;;
24485;SDS011;13449;49.374;8.584;2024-01-16T06:12:52;11.73;;;4.45;;
24485;SDS011;13449;49.374;8.584;2024-01-16T06:15:18;13.73;;;4.32;;
24485;SDS011;13449;49.374;8.584;2024-01-16T06:17:45;14.32;;;4.82;;
24485;SDS011;13449;49.374;8.584;2024-01-16T06:20:11;9.63;;;4.47;;
24485;SDS011;13449;49.374;8.584;2024-01-16T06:22:38;12.55;;;4.38;;
24485;SDS011;13449;49.374;8.584;2024-01-16T06:25:05;10.98;;;4.65;;
24485;SDS011;13449;49.374;8.584;2024-01-16T06:27:34;12.50;;;4.68;;
24485;SDS011;13449;49.374;8.584;2024-01-16T06:30:00;9.13;;;4.47;;
24485;SDS011;13449;49.374;8.584;2024-01-16T06:32:30;17.00;;;5.20;;
24485;SDS011;13449;49.374;8.584;2024-01-16T06:34:56;12.88;;;3.95;;
24485;SDS011;13449;49.374;8.584;2024-01-16T06:37:23;8.75;;;4.13;;
24485;SDS011;13449;49.374;8.584;2024-01-16T06:39:49;18.38;;;4.82;;
24485;SDS011;13449;49.374;8.584;2024-01-16T06:42:18;27.27;;;7.13;;
24485;SDS011;13449;49.374;8.584;2024-01-16T06:44:45;17.35;;;5.57;;
24485;SDS011;13449;49.374;8.584;2024-01-16T06:47:13;13.20;;;5.18;;
24485;SDS011;13449;49.374;8.584;2024-01-16T06:49:40;12.23;;;5.40;;
24485;SDS011;13449;49.374;8.584;2024-01-16T06:52:07;18.38;;;5.63;;
24485;SDS011;13449;49.374;8.584;2024-01-16T06:54:35;13.65;;;4.93;;
24485;SDS011;13449;49.374;8.584;2024-01-16T06:57:04;20.45;;;5.65;;
24485;SDS011;13449;49.374;8.584;2024-01-16T06:59:31;14.60;;;6.03;;
24485;SDS011;13449;49.374;8.584;2024-01-16T07:01:57;30.45;;;9.75;;
24485;SDS011;13449;49.374;8.584;2024-01-16T07:04:24;38.20;;;9.70;;
24485;SDS011;13449;49.374;8.584;2024-01-16T07:06:50;45.60;;;11.27;;
24485;SDS011;13449;49.374;8.584;2024-01-16T07:09:17;22.80;;;8.23;;
24485;SDS011;13449;49.374;8.584;2024-01-16T07:11:46;23.50;;;8.02;;
24485;SDS011;13449;49.374;8.584;2024-01-16T07:14:14;18.50;;;6.85;;
24485;SDS011;13449;49.374;8.584;2024-01-16T07:16:40;19.15;;;6.38;;
24485;SDS011;13449;49.374;8.584;2024-01-16T07:19:07;16.23;;;7.30;;
24485;SDS011;13449;49.374;8.584;2024-01-16T07:21:34;23.67;;;8.20;;
24485;SDS011;13449;49.374;8.584;2024-01-16T07:24:01;23.92;;;8.75;;
24485;SDS011;13449;49.374;8.584;2024-01-16T07:26:28;20.83;;;9.95;;
24485;SDS011;13449;49.374;8.584;2024-01-16T07:28:57;26.80;;;9.50;;
24485;SDS011;13449;49.374;8.584;2024-01-16T07:31:26;14.77;;;7.60;;
24485;SDS011;13449;49.374;8.584;2024-01-16T07:33:55;31.73;;;11.48;;
24485;SDS011;13449;49.374;8.584;2024-01-16T07:36:22;30.58;;;10.40;;
24485;SDS011;13449;49.374;8.584;2024-01-16T07:38:51;27.05;;;10.50;;
24485;SDS011;13449;49.374;8.584;2024-01-16T07:41:20;28.77;;;10.13;;
24485;SDS011;13449;49.374;8.584;2024-01-16T07:43:46;27.80;;;10.77;;
24485;SDS011;13449;49.374;8.584;2024-01-16T07:46:15;28.35;;;10.27;;
24485;SDS011;13449;49.374;8.584;2024-01-16T07:48:45;22.52;;;7.45;;
24485;SDS011;13449;49.374;8.584;2024-01-16T07:51:12;17.77;;;6.93;;
24485;SDS011;13449;49.374;8.584;2024-01-16T07:53:39;16.73;;;6.15;;
24485;SDS011;13449;49.374;8.584;2024-01-16T07:56:06;17.13;;;6.68;;
24485;SDS011;13449;49.374;8.584;2024-01-16T07:58:32;22.05;;;7.60;;
24485;SDS011;13449;49.374;8.584;2024-01-16T08:01:01;20.27;;;6.65;;
24485;SDS011;13449;49.374;8.584;2024-01-16T08:03:28;23.77;;;7.07;;
24485;SDS011;13449;49.374;8.584;2024-01-16T08:05:55;13.40;;;6.50;;
24485;SDS011;13449;49.374;8.584;2024-01-16T08:08:22;23.08;;;8.00;;
24485;SDS011;13449;49.374;8.584;2024-01-16T08:10:49;23.75;;;8.07;;
24485;SDS011;13449;49.374;8.584;2024-01-16T08:13:15;15.98;;;7.18;;
24485;SDS011;13449;49.374;8.584;2024-01-16T08:15:42;14.38;;;6.60;;
24485;SDS011;13449;49.374;8.584;2024-01-16T08:18:08;12.90;;;6.38;;
24485;SDS011;13449;49.374;8.584;2024-01-16T08:20:35;14.48;;;6.85;;
24485;SDS011;13449;49.374;8.584;2024-01-16T08:23:02;16.90;;;5.82;;
24485;SDS011;13449;49.374;8.584;2024-01-16T08:25:28;18.38;;;7.05;;
24485;SDS011;13449;49.374;8.584;2024-01-16T08:27:55;18.98;;;6.70;;
24485;SDS011;13449;49.374;8.584;2024-01-16T08:30:21;13.55;;;6.63;;
24485;SDS011;13449;49.374;8.584;2024-01-16T08:32:50;14.88;;;6.85;;
24485;SDS011;13449;49.374;8.584;2024-01-16T08:35:16;27.73;;;7.88;;
24485;SDS011;13449;49.374;8.584;2024-01-16T08:37:43;18.15;;;6.88;;
24485;SDS011;13449;49.374;8.584;2024-01-16T08:40:10;16.55;;;7.72;;
24485;SDS011;13449;49.374;8.584;2024-01-16T08:42:39;20.15;;;8.43;;
24485;SDS011;13449;49.374;8.584;2024-01-16T08:45:10;22.40;;;7.65;;
24485;SDS011;13449;49.374;8.584;2024-01-16T08:47:36;27.27;;;8.98;;
24485;SDS011;13449;49.374;8.584;2024-01-16T08:50:03;16.58;;;6.88;;
24485;SDS011;13449;49.374;8.584;2024-01-16T08:52:30;17.95;;;7.40;;
24485;SDS011;13449;49.374;8.584;2024-01-16T08:54:57;15.73;;;7.60;;
24485;SDS011;13449;49.374;8.584;2024-01-16T08:57:24;24.70;;;9.13;;
24485;SDS011;13449;49.374;8.584;2024-01-16T08:59:54;21.27;;;8.60;;
24485;SDS011;13449;49.374;8.584;2024-01-16T09:02:21;36.75;;;9.43;;
24485;SDS011;13449;49.374;8.584;2024-01-16T09:04:47;23.15;;;8.02;;
24485;SDS011;13449;49.374;8.584;2024-01-16T09:07:16;21.15;;;8.70;;
24485;SDS011;13449;49.374;8.584;2024-01-16T09:09:43;19.77;;;7.50;;
24485;SDS011;13449;49.374;8.584;2024-01-16T09:12:10;19.67;;;8.57;;
24485;SDS011;13449;49.374;8.584;2024-01-16T09:14:37;20.38;;;8.30;;
24485;SDS011;13449;49.374;8.584;2024-01-16T09:17:05;16.63;;;7.15;;
24485;SDS011;13449;49.374;8.584;2024-01-16T09:19:32;20.98;;;7.28;;
24485;SDS011;13449;49.374;8.584;2024-01-16T09:21:59;17.85;;;7.47;;
24485;SDS011;13449;49.374;8.584;2024-01-16T09:24:25;19.38;;;7.65;;
24485;SDS011;13449;49.374;8.584;2024-01-16T09:26:56;15.23;;;6.82;;
24485;SDS011;13449;49.374;8.584;2024-01-16T09:29:24;15.52;;;6.57;;
24485;SDS011;13449;49.374;8.584;2024-01-16T09:31:51;13.32;;;6.25;;
24485;SDS011;13449;49.374;8.584;2024-01-16T09:34:18;20.60;;;6.65;;
24485;SDS011;13449;49.374;8.584;2024-01-16T09:36:44;18.52;;;7.53;;
24485;SDS011;13449;49.374;8.584;2024-01-16T09:39:11;21.65;;;8.30;;
24485;SDS011;13449;49.374;8.584;2024-01-16T09:41:44;20.25;;;8.63;;
24485;SDS011;13449;49.374;8.584;2024-01-16T09:44:11;22.63;;;8.00;;
24485;SDS011;13449;49.374;8.584;2024-01-16T09:46:38;15.77;;;7.18;;
24485;SDS011;13449;49.374;8.584;2024-01-16T09:49:07;21.42;;;7.38;;
24485;SDS011;13449;49.374;8.584;2024-01-16T09:51:36;18.13;;;6.82;;
24485;SDS011;13449;49.374;8.584;2024-01-16T09:54:03;17.35;;;6.15;;
24485;SDS011;13449;49.374;8.584;2024-01-16T09:56:35;13.20;;;6.18;;
24485;SDS011;13449;49.374;8.584;2024-01-16T09:59:07;15.50;;;6.13;;
24485;SDS011;13449;49.374;8.584;2024-01-16T10:01:43;19.30;;;6.60;;
24485;SDS011;13449;49.374;8.584;2024-01-16T10:04:11;18.45;;;6.85;;
24485;SDS011;13449;49.374;8.584;2024-01-16T10:06:38;18.25;;;6.47;;
24485;SDS011;13449;49.374;8.584;2024-01-16T10:09:05;24.10;;;6.95;;
24485;SDS011;13449;49.374;8.584;2024-01-16T10:11:33;20.33;;;8.35;;
24485;SDS011;13449;49.374;8.584;2024-01-16T10:14:00;13.93;;;6.40;;
24485;SDS011;13449;49.374;8.584;2024-01-16T10:19:50;18.75;;;5.88;;
24485;SDS011;13449;49.374;8.584;2024-01-16T10:22:19;13.23;;;5.97;;
24485;SDS011;13449;49.374;8.584;2024-01-16T10:27:32;19.65;;;6.90;;
24485;SDS011;13449;49.374;8.584;2024-01-16T10:30:00;14.70;;;6.57;;
24485;SDS011;13449;49.374;8.584;2024-01-16T10:32:31;15.90;;;7.28;;
24485;SDS011;13449;49.374;8.584;2024-01-16T10:35:03;16.65;;;6.53;;
24485;SDS011;13449;49.374;8.584;2024-01-16T10:37:32;13.55;;;6.07;;
24485;SDS011;13449;49.374;8.584;2024-01-16T10:40:21;17.58;;;6.18;;
24485;SDS011;13449;49.374;8.584;2024-01-16T10:43:00;16.60;;;5.43;;
24485;SDS011;13449;49.374;8.584;2024-01-16T10:45:27;13.20;;;5.15;;
24485;SDS011;13449;49.374;8.584;2024-01-16T10:50:31;16.40;;;6.85;;
24485;SDS011;13449;49.374;8.584;2024-01-16T10:53:04;16.73;;;5.55;;
24485;SDS011;13449;49.374;8.584;2024-01-16T10:55:51;10.95;;;5.35;;
24485;SDS011;13449;49.374;8.584;2024-01-16T10:58:19;15.32;;;5.43;;
24485;SDS011;13449;49.374;8.584;2024-01-16T11:00:49;17.92;;;6.30;;
24485;SDS011;13449;49.374;8.584;2024-01-16T11:03:19;13.65;;;5.88;;
24485;SDS011;13449;49.374;8.584;2024-01-16T11:05:57;16.00;;;7.25;;
24485;SDS011;13449;49.374;8.584;2024-01-16T11:08:25;13.65;;;5.35;;
24485;SDS011;13449;49.374;8.584;2024-01-16T11:13:25;19.00;;;5.82;;
24485;SDS011;13449;49.374;8.584;2024-01-16T11:15:58;15.55;;;6.25;;
24485;SDS011;13449;49.374;8.584;2024-01-16T11:18:26;18.75;;;5.75;;
24485;SDS011;13449;49.374;8.584;2024-01-16T11:20:54;8.60;;;4.95;;
24485;SDS011;13449;49.374;8.584;2024-01-16T11:23:34;15.48;;;5.32;;
24485;SDS011;13449;49.374;8.584;2024-01-16T11:26:24;13.52;;;6.05;;
24485;SDS011;13449;49.374;8.584;2024-01-16T11:28:51;20.42;;;5.95;;
24485;SDS011;13449;49.374;8.584;2024-01-16T11:31:32;18.15;;;6.28;;
24485;SDS011;13449;49.374;8.584;2024-01-16T11:34:01;11.13;;;5.57;;
24485;SDS011;13449;49.374;8.584;2024-01-16T11:36:43;15.40;;;5.57;;
24485;SDS011;13449;49.374;8.584;2024-01-16T11:39:17;10.93;;;4.78;;
24485;SDS011;13449;49.374;8.584;2024-01-16T11:41:48;12.27;;;6.15;;
24485;SDS011;13449;49.374;8.584;2024-01-16T11:44:40;21.15;;;5.10;;
24485;SDS011;13449;49.374;8.584;2024-01-16T11:47:18;14.93;;;6.22;;
24485;SDS011;13449;49.374;8.584;2024-01-16T11:49:49;16.10;;;5.85;;
24485;SDS011;13449;49.374;8.584;2024-01-16T11:53:00;16.83;;;5.68;;
24485;SDS011;13449;49.374;8.584;2024-01-16T12:01:09;13.48;;;5.70;;
24485;SDS011;13449;49.374;8.584;2024-01-16T12:03:38;14.38;;;5.53;;
24485;SDS011;13449;49.374;8.584;2024-01-16T12:06:09;18.92;;;5.75;;
24485;SDS011;13449;49.374;8.584;2024-01-16T12:08:38;15.80;;;5.95;;
24485;SDS011;13449;49.374;8.584;2024-01-16T12:11:07;10.63;;;4.55;;
24485;SDS011;13449;49.374;8.584;2024-01-16T12:13:33;18.20;;;5.57;;
24485;SDS011;13449;49.374;8.584;2024-01-16T12:16:04;13.07;;;5.30;;
24485;SDS011;13449;49.374;8.584;2024-01-16T12:18:34;16.80;;;5.90;;
24485;SDS011;13449;49.374;8.584;2024-01-16T12:21:10;14.43;;;5.72;;
24485;SDS011;13449;49.374;8.584;2024-01-16T12:23:40;10.75;;;4.95;;
24485;SDS011;13449;49.374;8.584;2024-01-16T12:26:21;23.48;;;7.93;;
24485;SDS011;13449;49.374;8.584;2024-01-16T12:28:52;21.02;;;9.10;;
24485;SDS011;13449;49.374;8.584;2024-01-16T12:31:28;18.55;;;7.07;;
24485;SDS011;13449;49.374;8.584;2024-01-16T12:36:36;14.32;;;4.78;;
24485;SDS011;13449;49.374;8.584;2024-01-16T12:39:09;18.80;;;5.68;;
24485;SDS011;13449;49.374;8.584;2024-01-16T12:41:43;12.02;;;6.00;;
24485;SDS011;13449;49.374;8.584;2024-01-16T12:44:14;17.75;;;4.88;;
24485;SDS011;13449;49.374;8.584;2024-01-16T12:47:04;21.20;;;7.63;;
24485;SDS011;13449;49.374;8.584;2024-01-16T12:49:31;9.40;;;3.75;;
24485;SDS011;13449;49.374;8.584;2024-01-16T12:52:17;23.83;;;6.07;;
24485;SDS011;13449;49.374;8.584;2024-01-16T12:54:45;11.50;;;5.32;;
24485;SDS011;13449;49.374;8.584;2024-01-16T12:57:16;15.13;;;5.55;;
24485;SDS011;13449;49.374;8.584;2024-01-16T12:59:44;23.85;;;6.45;;
24485;SDS011;13449;49.374;8.584;2024-01-16T13:02:21;10.88;;;4.43;;
24485;SDS011;13449;49.374;8.584;2024-01-16T13:04:56;17.20;;;4.57;;
24485;SDS011;13449;49.374;8.584;2024-01-16T13:07:31;10.63;;;4.63;;
24485;SDS011;13449;49.374;8.584;2024-01-16T13:10:05;19.13;;;6.45;;
24485;SDS011;13449;49.374;8.584;2024-01-16T13:12:33;11.75;;;5.20;;
24485;SDS011;13449;49.374;8.584;2024-01-16T13:14:59;24.63;;;7.35;;
24485;SDS011;13449;49.374;8.584;2024-01-16T13:17:27;13.68;;;4.07;;
24485;SDS011;13449;49.374;8.584;2024-01-16T13:19:54;15.25;;;4.65;;
24485;SDS011;13449;49.374;8.584;2024-01-16T13:22:21;11.63;;;3.97;;
24485;SDS011;13449;49.374;8.584;2024-01-16T13:25:05;11.50;;;5.55;;
24485;SDS011;13449;49.374;8.584;2024-01-16T13:27:37;10.80;;;4.53;;
24485;SDS011;13449;49.374;8.584;2024-01-16T13:30:03;8.13;;;4.07;;
24485;SDS011;13449;49.374;8.584;2024-01-16T13:32:39;6.57;;;2.83;;
24485;SDS011;13449;49.374;8.584;2024-01-16T13:35:06;6.22;;;2.33;;
24485;SDS011;13449;49.374;8.584;2024-01-16T13:37:36;8.40;;;3.05;;
24485;SDS011;13449;49.374;8.584;2024-01-16T13:40:14;7.15;;;3.30;;
24485;SDS011;13449;49.374;8.584;2024-01-16T13:42:50;9.40;;;3.22;;
24485;SDS011;13449;49.374;8.584;2024-01-16T13:45:23;11.43;;;3.78;;
24485;SDS011;13449;49.374;8.584;2024-01-16T13:47:52;5.35;;;2.38;;
24485;SDS011;13449;49.374;8.584;2024-01-16T13:50:18;10.95;;;3.42;;
24485;SDS011;13449;49.374;8.584;2024-01-16T13:52:52;9.85;;;4.40;;
24485;SDS011;13449;49.374;8.584;2024-01-16T13:55:20;8.32;;;3.50;;
24485;SDS011;13449;49.374;8.584;2024-01-16T13:57:47;10.90;;;3.85;;
24485;SDS011;13449;49.374;8.584;2024-01-16T14:00:21;7.47;;;3.25;;
24485;SDS011;13449;49.374;8.584;2024-01-16T14:02:48;11.57;;;3.55;;
24485;SDS011;13449;49.374;8.584;2024-01-16T14:05:16;8.63;;;3.47;;
24485;SDS011;13449;49.374;8.584;2024-01-16T14:07:51;10.52;;;3.40;;
24485;SDS011;13449;49.374;8.584;2024-01-16T14:10:19;6.60;;;3.40;;
24485;SDS011;13449;49.374;8.584;2024-01-16T14:12:48;11.50;;;4.03;;
24485;SDS011;13449;49.374;8.584;2024-01-16T14:15:22;8.63;;;3.63;;
24485;SDS011;13449;49.374;8.584;2024-01-16T14:17:55;17.55;;;4.88;;
24485;SDS011;13449;49.374;8.584;2024-01-16T14:20:29;21.50;;;7.78;;
24485;SDS011;13449;49.374;8.584;2024-01-16T14:22:56;13.27;;;5.30;;
24485;SDS011;13449;49.374;8.584;2024-01-16T14:25:23;11.63;;;3.95;;
24485;SDS011;13449;49.374;8.584;2024-01-16T14:27:57;6.22;;;3.15;;
24485;SDS011;13449;49.374;8.584;2024-01-16T14:30:32;12.75;;;2.35;;
24485;SDS011;13449;49.374;8.584;2024-01-16T14:32:59;10.68;;;2.65;;
24485;SDS011;13449;49.374;8.584;2024-01-16T14:35:27;8.82;;;3.90;;
24485;SDS011;13449;49.374;8.584;2024-01-16T14:37:54;8.35;;;2.50;;
24485;SDS011;13449;49.374;8.584;2024-01-16T14:40:25;6.80;;;3.60;;
24485;SDS011;13449;49.374;8.584;2024-01-16T14:42:52;9.13;;;3.38;;
24485;SDS011;13449;49.374;8.584;2024-01-16T14:45:22;6.43;;;3.38;;
24485;SDS011;13449;49.374;8.584;2024-01-16T14:47:50;7.03;;;4.13;;
24485;SDS011;13449;49.374;8.584;2024-01-16T14:50:17;7.30;;;3.53;;
24485;SDS011;13449;49.374;8.584;2024-01-16T14:52:44;16.85;;;5.28;;
24485;SDS011;13449;49.374;8.584;2024-01-16T14:55:18;24.17;;;8.27;;
24485;SDS011;13449;49.374;8.584;2024-01-16T14:57:52;21.92;;;7.70;;
24485;SDS011;13449;49.374;8.584;2024-01-16T15:00:19;15.18;;;5.88;;
24485;SDS011;13449;49.374;8.584;2024-01-16T15:02:48;10.68;;;4.25;;
24485;SDS011;13449;49.374;8.584;2024-01-16T15:05:16;12.93;;;3.50;;
24485;SDS011;13449;49.374;8.584;2024-01-16T15:07:43;7.63;;;3.47;;